Historique des Minis et Maxis de la station Météo
| Date | Température | Point de rosée | Humidité | Pression | ||||
|---|---|---|---|---|---|---|---|---|
| Mini | Maxi | Mini | Maxi | Mini | Maxi | Mini | Maxi | |
| 20/06/2024 23:59 | 15.4 C° | 33.88 C° | 15,40 C° | 33,70 C° | 91 % | 100 % | 1012.2 Hpa | 1017.74 Hpa |
| 19/06/2024 23:59 | 17.27 C° | 31.27 C° | 17,27 C° | 31,27 C° | 100 % | 100 % | 1009.36 Hpa | 1016.9 Hpa |
| 18/06/2024 23:59 | 14.3 C° | 33.98 C° | 14,30 C° | 32,61 C° | 86 % | 100 % | 29.68 Hpa | 1013.03 Hpa |
| 17/06/2024 23:59 | 14.4 C° | 29.34 C° | 14,40 C° | 29,34 C° | 100 % | 100 % | 29.68 Hpa | 1013.09 Hpa |
| 16/06/2024 23:59 | 14.01 C° | 23.1 C° | 14,01 C° | 23,10 C° | 93 % | 100 % | 1006.93 Hpa | 1009.05 Hpa |
| 15/06/2024 23:59 | 12.1 C° | 27.36 C° | 12,10 C° | 21,31 C° | 63 % | 100 % | 29.68 Hpa | 1007.97 Hpa |
| 14/06/2024 23:59 | 12.97 C° | 28.31 C° | 12,97 C° | 28,31 C° | 84 % | 100 % | 1003.29 Hpa | 1010.86 Hpa |
| 13/06/2024 23:59 | 8.93 C° | 31.22 C° | 10,00 C° | 9,99 C° | 52 % | 100 % | 29.68 Hpa | 1016.71 Hpa |
| 12/06/2024 23:59 | 9.42 C° | 29.34 C° | 10,00 C° | 9,98 C° | 53 % | 100 % | 1014.9 Hpa | 1016.6 Hpa |
| 11/06/2024 23:59 | 7.7 C° | 28.76 C° | 10 C° | 9,99 C° | 50 % | 100 % | 29.68 Hpa | 1015.33 Hpa |
| 10/06/2024 23:59 | 9.9 C° | 24.8 C° | 10,01 C° | 9,99 C° | 79 % | 100 % | 1005.36 Hpa | 1010.6 Hpa |
| 09/06/2024 23:59 | 12.12 C° | 33.88 C° | 11,11 C° | 23,32 C° | 52 % | 100 % | 1004.95 Hpa | 1009.49 Hpa |
| 08/06/2024 23:59 | 10.85 C° | 32.93 C° | 10,85 C° | 23,80 C° | 54 % | 100 % | 1007.28 Hpa | 1014.76 Hpa |
| 07/06/2024 23:59 | 11.43 C° | 33.35 C° | 11,43 C° | 24,68 C° | 54 % | 100 % | 1014.13 Hpa | 1026.8 Hpa |
| 06/06/2024 23:59 | 12.2 C° | 31.45 C° | 12,20 C° | 26,28 C° | 58 % | 100 % | 29.68 Hpa | 1015.29 Hpa |
| 05/06/2024 23:59 | 15.2 C° | 27.84 C° | 15,20 C° | 26,60 C° | 92 % | 100 % | 1009.1 Hpa | 1013.79 Hpa |
| 04/06/2024 23:59 | 10.02 C° | 31.7 C° | 10,02 C° | 25,63 C° | 66 % | 100 % | 29.68 Hpa | 1014.99 Hpa |
| 03/06/2024 23:59 | 12.23 C° | 188.86 C° | 12,23 C° | 25,28 C° | 56 % | 100 % | 29.68 Hpa | 1017.53 Hpa |
| 02/06/2024 23:59 | 15.55 C° | 22.51 C° | 15,55 C° | 22,51 C° | 100 % | 100 % | 1015.38 Hpa | 1017.98 Hpa |
| 01/06/2024 23:59 | 12.88 C° | 22.84 C° | 12,88 C° | 22,84 C° | 100 % | 100 % | 1011.18 Hpa | 1015.87 Hpa |